»·PEaware :: N1068C KSNA-KSMO

N1068C :: KSNA-KSMO

FLIGHT INFORMATION

Flight Status: Arrived
Operator: Privately registered:
United States
More flights under this callsign
Pilot: Joseph S. (18277)
Aircraft: CESSNA 172 SKYHAWK
(C172)
More flights by this aircraft type
Origin: KSNA John Wayne-Orange Co
United States
Destination: KSMO Santa Monica Mun
United States
More flights between these airports :: More routes between these airports
Route: SLI V8 POXKU V363 BAYJY V186 DARTS SMO
File this flight plan on PilotEdge
Remarks: I-4 - CSTN9 TEC Route
Altitude:
(Current/Filed)
6,000ft
Speed:
(Current/Filed)
100kts
Departed: 15-Apr-18 11:04 AM
Arrived: 15-Apr-18 11:42 AM
Distance/Time
Traveled:
36nm/0:38
Distance/Time
To Go:
Arrived

Flight Plot

Page will automatically refresh every two minutes.

Flight plan parsing failed; only flown route is shown


Map Options




Map Legend


Flown Route
Filed Route
Departure Airport
Arrival Airport
Navaid (VOR, NDB)
Fix

Horizontal Profiles

Position Reports

Time Latitude Longitude Heading Altitude Ground
Speed
15-Apr-18 10:51 33.677915 -117.863138 117 60ft 0kts
15-Apr-18 10:52 33.677915 -117.863138 116 60ft 0kts
15-Apr-18 10:53 33.677915 -117.863138 116 60ft 0kts
15-Apr-18 10:54 33.677915 -117.863138 116 60ft 0kts
15-Apr-18 10:55 33.678179 -117.863021 299 60ft 0kts
15-Apr-18 10:56 33.678179 -117.863021 299 60ft 0kts
15-Apr-18 10:57 33.678179 -117.863021 299 60ft 0kts
15-Apr-18 10:58 33.678179 -117.863021 299 60ft 0kts
15-Apr-18 10:59 33.678179 -117.863021 299 60ft 0kts
15-Apr-18 11:00 33.678758 -117.863532 27 60ft 15kts
15-Apr-18 11:01 33.680011 -117.863675 293 60ft 0kts
15-Apr-18 11:02 33.680011 -117.863675 293 60ft 0kts
15-Apr-18 11:03 33.672209 -117.869846 212 278ft 74kts
15-Apr-18 11:04 33.659795 -117.890590 230 1065ft 81kts
15-Apr-18 11:05 33.646147 -117.913760 230 1839ft 88kts
15-Apr-18 11:06 33.632101 -117.937847 230 2631ft 88kts
15-Apr-18 11:07 33.633448 -117.962099 342 3340ft 96kts
15-Apr-18 11:08 33.658679 -117.954635 20 4010ft 97kts
15-Apr-18 11:09 33.680786 -117.937788 40 4647ft 97kts
15-Apr-18 11:10 33.701862 -117.918707 39 5264ft 99kts
15-Apr-18 11:11 33.723586 -117.899229 38 5858ft 101kts
15-Apr-18 11:12 33.743256 -117.881518 38 5990ft 119kts
15-Apr-18 11:13 33.769711 -117.857718 38 5990ft 122kts
15-Apr-18 11:14 33.796970 -117.833328 38 5987ft 123kts
15-Apr-18 11:15 33.824311 -117.808894 38 5985ft 123kts
15-Apr-18 11:16 33.851705 -117.785056 22 5982ft 123kts
15-Apr-18 11:17 33.885806 -117.783550 0 5981ft 124kts
15-Apr-18 11:18 33.919953 -117.784004 359 5987ft 124kts
15-Apr-18 11:19 33.954283 -117.784658 359 5977ft 125kts
15-Apr-18 11:20 33.988529 -117.785365 358 5967ft 125kts
15-Apr-18 11:21 34.012507 -117.806608 288 5955ft 119kts
15-Apr-18 11:22 34.024591 -117.842821 286 5942ft 119kts
15-Apr-18 11:23 34.036181 -117.879329 286 5944ft 119kts
15-Apr-18 11:24 34.047665 -117.916247 286 5949ft 120kts
15-Apr-18 11:25 34.058980 -117.953183 294 5953ft 115kts
15-Apr-18 11:26 34.069916 -117.988497 293 5961ft 112kts
15-Apr-18 11:27 34.080581 -118.023176 292 5970ft 110kts
15-Apr-18 11:28 34.091104 -118.057440 292 5981ft 109kts
15-Apr-18 11:29 34.101364 -118.090899 292 5990ft 109kts
15-Apr-18 11:30 34.111737 -118.124770 292 5991ft 110kts
15-Apr-18 11:31 34.112325 -118.162117 261 5674ft 128kts
15-Apr-18 11:32 34.105549 -118.202778 261 5000ft 127kts
15-Apr-18 11:33 34.100830 -118.241740 261 4327ft 120kts
15-Apr-18 11:34 34.097359 -118.278988 261 3990ft 113kts
15-Apr-18 11:35 34.094307 -118.314360 261 3990ft 107kts
15-Apr-18 11:36 34.091454 -118.349165 261 3990ft 105kts
15-Apr-18 11:37 34.086276 -118.376995 224 3985ft 103kts
15-Apr-18 11:38 34.064344 -118.400787 210 2941ft 105kts
15-Apr-18 11:39 34.043277 -118.419288 225 1200ft 96kts
15-Apr-18 11:40 34.029704 -118.434267 228 541ft 77kts
15-Apr-18 11:41 34.016708 -118.450200 231 145ft 39kts
15-Apr-18 11:42 34.015430 -118.453033 19 137ft 12kts
15-Apr-18 11:43 34.015973 -118.453082 325 139ft 0kts

Navigation Log

Ident Type
Flight plan parsing failed, navigation log unavailable